Altus AFB, Oklahoma
Current Conditions -  °F | °C
As of 12:58 PM on Friday 24 Oct 2014 (Local Time) from KLTS Reporting Station
Clear Clear  
Wind Chill: 82°   Ceiling: Unl
Heat Index: 83°   Visibility: 10mi
Dew Point: 62°   Wind: 8mph
Humidity: 50%   Direction: 200°SSW
Pressure: 30.09"   Gusts: NA
Location:  34.65°N, 99.28°W
Report Text: KLTS 241758Z 20007KT 10SM CLR 28/17 A3009 RMK AO2A SLP178 T02790165 10279 20132 57007 $
Loading
Personal Weather Stations






























Interactive Weather Map
Tropical Storm Tracking
New forecast layout! Learn more

10-Day Weather Forecast

Advertisements
Track Severe Weather on mobile